createdAt,value
2022-09-28T00:01:07.609Z,3.40
2022-09-28T00:03:34.925Z,3.33
2022-09-28T00:06:03.059Z,3.10
2022-09-28T00:08:30.385Z,3.72
2022-09-28T00:10:58.269Z,3.58
2022-09-28T00:13:25.798Z,4.05
2022-09-28T00:16:02.988Z,3.85
2022-09-28T00:18:30.497Z,3.80
2022-09-28T00:21:05.863Z,3.55
2022-09-28T00:23:33.604Z,3.65
2022-09-28T00:26:05.102Z,3.38
2022-09-28T00:28:33.075Z,3.92
2022-09-28T00:31:01.000Z,3.85
2022-09-28T00:33:28.243Z,4.18
2022-09-28T00:35:56.539Z,3.88
2022-09-28T00:38:26.572Z,4.65
2022-09-28T00:40:54.061Z,4.60
2022-09-28T00:43:21.632Z,4.78
2022-09-28T00:45:52.073Z,4.70
2022-09-28T00:48:19.367Z,4.82
2022-09-28T00:50:46.709Z,5.20
2022-09-28T00:53:17.209Z,4.82
2022-09-28T00:55:44.674Z,5.18
2022-09-28T00:58:14.282Z,5.45
2022-09-28T01:00:42.327Z,5.90
2022-09-28T01:03:09.804Z,6.20
2022-09-28T01:05:37.836Z,6.03
2022-09-28T01:08:05.398Z,6.80
2022-09-28T01:10:33.210Z,5.88
2022-09-28T01:13:00.547Z,5.45
2022-09-28T01:15:29.271Z,5.07
2022-09-28T01:18:11.940Z,6.05
2022-09-28T01:20:50.013Z,5.82
2022-09-28T01:23:32.700Z,6.57
2022-09-28T01:26:20.349Z,5.32
2022-09-28T01:28:48.906Z,4.78
2022-09-28T01:31:17.135Z,4.88
2022-09-28T01:33:50.611Z,4.80
2022-09-28T01:36:26.952Z,5.68
2022-09-28T01:38:56.323Z,5.40
2022-09-28T01:41:25.131Z,5.25
2022-09-28T01:43:55.422Z,5.15
2022-09-28T01:46:24.502Z,5.38
2022-09-28T01:48:55.284Z,4.85
2022-09-28T01:51:43.394Z,5.10
2022-09-28T01:54:12.955Z,4.93
2022-09-28T01:56:42.855Z,4.60
2022-09-28T01:59:18.902Z,4.22
2022-09-28T02:01:57.732Z,4.38
2022-09-28T02:04:40.029Z,4.20
2022-09-28T02:07:10.724Z,3.78
2022-09-28T02:09:41.496Z,3.95
2022-09-28T02:12:12.990Z,4.30
2022-09-28T02:14:41.602Z,4.78
2022-09-28T02:17:10.707Z,4.72
2022-09-28T02:19:38.744Z,5.57
2022-09-28T02:22:13.980Z,4.88
2022-09-28T02:27:15.061Z,5.43
2022-09-28T02:29:42.474Z,4.82
2022-09-28T02:32:09.893Z,5.30
2022-09-28T02:34:37.244Z,5.20
2022-09-28T02:37:04.535Z,5.13
2022-09-28T02:39:31.926Z,4.95
2022-09-28T02:42:23.630Z,5.38
2022-09-28T02:44:58.488Z,4.82
2022-09-28T02:47:31.678Z,5.68
2022-09-28T02:50:14.722Z,5.43
2022-09-28T02:52:51.358Z,5.30
2022-09-28T02:55:24.943Z,5.68
2022-09-28T02:58:07.082Z,5.28
2022-09-28T03:00:38.810Z,4.97
2022-09-28T03:03:12.580Z,5.15
2022-09-28T03:05:45.872Z,5.18
2022-09-28T03:08:28.681Z,5.45
2022-09-28T03:11:04.328Z,5.80
2022-09-28T03:13:32.402Z,5.03
2022-09-28T03:16:16.598Z,6.45
2022-09-28T03:18:43.952Z,5.38
2022-09-28T03:21:14.472Z,5.57
2022-09-28T03:23:42.287Z,5.38
2022-09-28T03:26:11.635Z,5.03
2022-09-28T03:28:38.926Z,6.10
2022-09-28T03:31:06.572Z,5.10
2022-09-28T03:33:33.890Z,5.57
2022-09-28T03:36:01.239Z,4.63
2022-09-28T03:38:28.911Z,5.38
2022-09-28T03:41:00.710Z,5.85
2022-09-28T03:43:28.893Z,6.18
2022-09-28T03:45:56.968Z,5.25
2022-09-28T03:48:29.858Z,5.50
2022-09-28T03:50:59.874Z,5.03
2022-09-28T03:53:27.428Z,6.00
2022-09-28T03:55:54.800Z,5.53
2022-09-28T03:58:22.774Z,5.93
2022-09-28T04:00:50.293Z,5.80
2022-09-28T04:03:17.746Z,5.78
2022-09-28T04:05:51.736Z,5.82
2022-09-28T04:08:19.598Z,6.15
2022-09-28T04:10:47.266Z,5.72
2022-09-28T04:13:14.790Z,7.35
2022-09-28T04:15:42.116Z,7.20
2022-09-28T04:18:13.724Z,7.60
2022-09-28T04:20:46.142Z,6.50
2022-09-28T04:23:13.396Z,7.70
2022-09-28T04:25:40.794Z,6.90
2022-09-28T04:28:28.157Z,6.57
2022-09-28T04:30:55.411Z,6.30
2022-09-28T04:33:22.699Z,5.85
2022-09-28T04:35:49.934Z,6.05
2022-09-28T04:38:26.915Z,6.90
2022-09-28T04:41:06.156Z,6.10
2022-09-28T04:43:33.571Z,6.53
2022-09-28T04:46:01.505Z,6.00
2022-09-28T04:48:29.450Z,6.80
2022-09-28T04:50:57.458Z,6.25
2022-09-28T04:53:25.351Z,6.03
2022-09-28T04:55:56.410Z,6.43
2022-09-28T04:58:23.993Z,5.80
2022-09-28T05:00:51.550Z,6.05
2022-09-28T05:03:19.117Z,5.90
2022-09-28T05:05:49.031Z,5.10
2022-09-28T05:08:16.864Z,6.32
2022-09-28T05:10:44.296Z,5.68
2022-09-28T05:13:12.514Z,5.75
2022-09-28T05:15:40.909Z,6.07
2022-09-28T05:18:08.641Z,5.88
2022-09-28T05:20:40.619Z,5.15
2022-09-28T05:23:10.050Z,4.90
2022-09-28T05:25:37.462Z,5.30
2022-09-28T05:28:04.810Z,4.80
2022-09-28T05:30:32.299Z,5.10
2022-09-28T05:32:59.927Z,4.60
2022-09-28T05:35:27.454Z,4.03
2022-09-28T05:37:55.238Z,3.28
2022-09-28T05:40:23.145Z,3.30
2022-09-28T05:42:51.063Z,3.95
2022-09-28T05:45:18.364Z,2.58
2022-09-28T05:47:46.316Z,2.53
2022-09-28T05:50:16.254Z,3.00
2022-09-28T05:52:44.684Z,2.90
2022-09-28T05:55:12.455Z,2.72
2022-09-28T05:57:39.730Z,2.47
2022-09-28T06:00:10.059Z,2.53
2022-09-28T06:02:37.501Z,2.63
2022-09-28T06:05:05.232Z,3.22
2022-09-28T06:07:32.747Z,2.92
2022-09-28T06:10:00.193Z,3.20
2022-09-28T06:12:28.261Z,2.70
2022-09-28T06:14:57.094Z,2.80
2022-09-28T06:17:24.556Z,2.70
2022-09-28T06:19:54.902Z,2.83
2022-09-28T06:22:22.412Z,2.40
2022-09-28T06:24:49.694Z,2.75
2022-09-28T06:27:17.803Z,3.55
2022-09-28T06:29:46.385Z,2.83
2022-09-28T06:32:14.226Z,2.33
2022-09-28T06:34:42.946Z,2.63
2022-09-28T06:37:10.184Z,2.75
2022-09-28T06:39:37.483Z,2.50
2022-09-28T06:42:05.219Z,2.90
2022-09-28T06:44:32.557Z,2.10
2022-09-28T06:46:59.964Z,2.00
2022-09-28T06:49:30.322Z,2.03
2022-09-28T06:51:57.593Z,2.47
2022-09-28T06:54:26.143Z,1.80
2022-09-28T06:56:54.085Z,1.70
2022-09-28T06:59:21.629Z,2.03
2022-09-28T07:01:49.008Z,2.47
2022-09-28T07:04:16.544Z,2.33
2022-09-28T07:06:50.747Z,1.85
2022-09-28T07:09:31.481Z,1.90
2022-09-28T07:11:59.987Z,2.70
2022-09-28T07:14:46.002Z,2.17
2022-09-28T07:17:15.031Z,2.22
2022-09-28T07:19:42.692Z,2.50
2022-09-28T07:22:18.540Z,3.50
2022-09-28T07:24:48.044Z,2.90
2022-09-28T07:27:15.710Z,2.72
2022-09-28T07:29:43.193Z,2.50
2022-09-28T07:32:10.520Z,2.80
2022-09-28T07:34:43.758Z,2.90
2022-09-28T07:37:12.653Z,2.60
2022-09-28T07:39:59.099Z,2.80
2022-09-28T07:42:33.121Z,3.70
2022-09-28T07:45:00.684Z,4.15
2022-09-28T07:47:33.809Z,3.60
2022-09-28T07:50:01.554Z,3.55
2022-09-28T07:52:29.003Z,3.83
2022-09-28T07:54:56.695Z,3.22
2022-09-28T07:57:24.656Z,3.35
2022-09-28T07:59:53.809Z,2.95
2022-09-28T08:02:22.482Z,3.05
2022-09-28T08:04:50.414Z,3.17
2022-09-28T08:07:23.469Z,3.53
2022-09-28T08:09:51.459Z,4.13
2022-09-28T08:12:19.864Z,3.28
2022-09-28T08:14:47.242Z,4.32
2022-09-28T08:17:15.821Z,4.03
2022-09-28T08:20:01.766Z,4.03
2022-09-28T08:22:32.366Z,4.32
2022-09-28T08:24:59.716Z,3.63
2022-09-28T08:27:27.077Z,4.35
2022-09-28T08:29:54.454Z,4.75
2022-09-28T08:32:21.824Z,4.22
2022-09-28T08:34:49.104Z,5.05
2022-09-28T08:37:16.423Z,4.28
2022-09-28T08:39:43.731Z,4.50
2022-09-28T08:42:29.813Z,4.97
2022-09-28T08:44:59.710Z,4.22
2022-09-28T08:48:21.169Z,3.88
2022-09-28T08:50:52.250Z,5.13
2022-09-28T08:53:31.824Z,6.25
2022-09-28T08:56:00.839Z,5.38
2022-09-28T08:58:33.092Z,5.72
2022-09-28T09:01:01.450Z,4.65
2022-09-28T09:03:33.685Z,5.82
2022-09-28T09:06:01.141Z,4.70
2022-09-28T09:08:35.641Z,5.10
2022-09-28T09:11:02.906Z,4.77
2022-09-28T09:13:42.305Z,3.78
2022-09-28T09:16:19.657Z,4.32
2022-09-28T09:18:55.685Z,4.38
2022-09-28T09:21:42.518Z,4.50
2022-09-28T09:24:13.083Z,4.35
2022-09-28T09:26:41.341Z,2.63
2022-09-28T09:29:12.317Z,3.67
2022-09-28T09:31:42.962Z,3.83
2022-09-28T09:34:19.409Z,3.83
2022-09-28T09:36:47.512Z,4.07
2022-09-28T09:39:15.324Z,4.03
2022-09-28T09:41:53.155Z,3.78
2022-09-28T09:44:39.350Z,3.50
2022-09-28T09:47:12.392Z,3.67
2022-09-28T09:49:42.011Z,4.38
2022-09-28T09:52:12.455Z,4.38
2022-09-28T09:54:58.730Z,4.22
2022-09-28T09:57:32.123Z,3.80
2022-09-28T10:00:00.046Z,4.82
2022-09-28T10:02:32.454Z,4.90
2022-09-28T10:05:02.630Z,4.60
2022-09-28T10:07:34.429Z,3.90
2022-09-28T10:10:02.354Z,3.70
2022-09-28T10:12:31.182Z,4.00
2022-09-28T10:14:58.434Z,3.40
2022-09-28T10:17:27.615Z,3.47
2022-09-28T10:25:06.343Z,3.40
2022-09-28T10:27:35.683Z,3.60
2022-09-28T10:30:04.735Z,5.25
2022-09-28T10:32:39.421Z,3.20
2022-09-28T10:35:12.661Z,3.13
2022-09-28T10:37:55.352Z,3.35
2022-09-28T10:40:43.888Z,3.03
2022-09-28T10:43:25.544Z,3.05
2022-09-28T10:46:07.941Z,3.30
2022-09-28T10:48:48.005Z,3.53
2022-09-28T10:51:15.407Z,4.32
2022-09-28T10:53:42.695Z,4.03
2022-09-28T10:56:22.818Z,3.55
2022-09-28T10:58:50.264Z,3.95
2022-09-28T11:01:18.990Z,3.78
2022-09-28T11:04:12.383Z,5.18
2022-09-28T11:06:41.983Z,3.85
2022-09-28T11:09:27.093Z,3.80
2022-09-28T11:11:55.837Z,3.63
2022-09-28T11:14:27.219Z,3.05
2022-09-28T11:17:13.862Z,3.85
2022-09-28T11:19:42.291Z,3.30
2022-09-28T11:22:30.225Z,2.83
2022-09-28T11:25:16.195Z,3.22
2022-09-28T11:27:52.612Z,3.20
2022-09-28T11:30:22.909Z,3.30
2022-09-28T11:32:50.739Z,3.50
2022-09-28T11:35:23.236Z,4.03
2022-09-28T11:37:53.189Z,3.60
2022-09-28T11:40:26.608Z,3.40
2022-09-28T11:43:02.863Z,3.75
2022-09-28T11:45:33.143Z,3.47
2022-09-28T11:48:02.712Z,4.43
2022-09-28T11:50:48.696Z,4.47
2022-09-28T11:53:31.030Z,4.57
2022-09-28T11:56:03.249Z,4.03
2022-09-28T11:58:36.059Z,3.78
2022-09-28T12:01:09.584Z,3.00
2022-09-28T12:03:41.544Z,2.90
2022-09-28T12:06:14.008Z,2.92
2022-09-28T12:08:44.642Z,2.58
2022-09-28T12:11:15.790Z,3.17
2022-09-28T12:13:45.498Z,2.78
2022-09-28T12:16:45.564Z,3.22
2022-09-28T12:19:26.806Z,3.13
2022-09-28T12:21:56.741Z,3.17
2022-09-28T12:24:42.663Z,2.90
2022-09-28T12:27:19.118Z,3.22
2022-09-28T12:29:56.579Z,3.63
2022-09-28T12:32:23.769Z,3.47
2022-09-28T12:34:51.040Z,4.03
2022-09-28T12:37:20.990Z,3.60
2022-09-28T12:40:03.272Z,3.72
2022-09-28T12:42:33.423Z,3.97
2022-09-28T12:45:07.022Z,3.28
2022-09-28T12:47:53.035Z,2.70
2022-09-28T12:50:39.302Z,2.42
2022-09-28T12:53:26.640Z,12.15
2022-09-28T12:55:59.865Z,6.30
2022-09-28T12:58:36.797Z,4.82
2022-09-28T13:01:08.738Z,2.08
2022-09-28T13:03:45.942Z,3.13
2022-09-28T13:06:18.329Z,2.72
2022-09-28T13:08:45.629Z,7.90
2022-09-28T13:11:20.980Z,11.93
2022-09-28T13:13:48.166Z,5.78
2022-09-28T13:16:21.817Z,2.10
2022-09-28T13:18:49.056Z,3.55
2022-09-28T13:21:28.752Z,1.70
2022-09-28T13:24:09.023Z,1.75
2022-09-28T13:26:46.615Z,1.35
2022-09-28T13:29:15.824Z,1.75
2022-09-28T13:31:46.994Z,1.80
2022-09-28T13:34:20.614Z,1.85
2022-09-28T13:37:07.954Z,1.83
2022-09-28T13:39:47.267Z,1.35
2022-09-28T13:42:23.757Z,1.00
2022-09-28T13:45:30.468Z,1.27
2022-09-28T13:48:00.602Z,1.35
2022-09-28T13:50:27.838Z,1.10
2022-09-28T13:52:57.864Z,1.60
2022-09-28T13:55:25.404Z,1.48
2022-09-28T13:58:04.953Z,1.33
2022-09-28T14:00:32.199Z,1.77
2022-09-28T14:03:05.617Z,1.80
2022-09-28T14:05:47.424Z,1.90
2022-09-28T14:08:35.165Z,1.80
2022-09-28T14:11:24.663Z,8.27
2022-09-28T14:14:02.105Z,1.85
2022-09-28T14:16:33.890Z,2.78
2022-09-28T14:19:01.141Z,2.40
2022-09-28T14:21:47.271Z,1.70
2022-09-28T14:24:24.049Z,5.53
2022-09-28T14:27:10.277Z,4.13
2022-09-28T14:29:39.178Z,4.40
2022-09-28T14:32:22.366Z,3.17
2022-09-28T14:34:56.499Z,2.10
2022-09-28T14:37:47.796Z,2.42
2022-09-28T14:40:49.436Z,2.80
2022-09-28T14:43:27.882Z,1.92
2022-09-28T14:46:14.714Z,2.05
2022-09-28T14:48:55.820Z,2.00
2022-09-28T14:51:30.221Z,3.38
2022-09-28T14:54:00.450Z,2.83
2022-09-28T14:56:33.016Z,2.30
2022-09-28T14:59:01.084Z,2.90
2022-09-28T15:01:28.446Z,2.90
2022-09-28T15:03:56.730Z,3.22
2022-09-28T15:06:25.276Z,2.28
2022-09-28T15:08:52.929Z,2.58
2022-09-28T15:11:25.202Z,2.47
2022-09-28T15:14:06.143Z,2.28
2022-09-28T15:16:33.671Z,2.88
2022-09-28T15:19:21.043Z,2.80
2022-09-28T15:21:50.151Z,3.10
2022-09-28T15:24:26.558Z,2.75
2022-09-28T15:26:53.836Z,2.75
2022-09-28T15:29:22.971Z,3.40
2022-09-28T15:31:54.313Z,3.60
2022-09-28T15:34:51.158Z,3.47
2022-09-28T15:37:22.006Z,3.85
2022-09-28T15:39:50.722Z,5.60
2022-09-28T15:42:19.071Z,7.35
2022-09-28T15:45:13.294Z,8.57
2022-09-28T15:47:42.222Z,11.10
2022-09-28T15:50:22.192Z,8.85
2022-09-28T15:52:57.482Z,6.47
2022-09-28T15:58:05.829Z,5.22
2022-09-28T16:00:33.337Z,4.07
2022-09-28T16:03:09.588Z,3.70
2022-09-28T16:05:55.709Z,5.97
2022-09-28T16:08:27.602Z,5.80
2022-09-28T16:11:00.846Z,5.57
2022-09-28T16:13:28.354Z,4.13
2022-09-28T16:16:00.093Z,4.60
2022-09-28T16:18:28.486Z,3.80
2022-09-28T16:20:58.959Z,3.70
2022-09-28T16:23:26.189Z,3.63
2022-09-28T16:25:59.226Z,3.47
2022-09-28T16:28:26.497Z,3.45
2022-09-28T16:31:01.629Z,3.72
2022-09-28T16:33:30.873Z,4.20
2022-09-28T16:36:02.621Z,2.80
2022-09-28T16:38:30.028Z,2.85
2022-09-28T16:40:59.665Z,3.20
2022-09-28T16:43:28.358Z,3.55
2022-09-28T16:46:01.620Z,2.70
2022-09-28T16:48:32.926Z,3.20
2022-09-28T16:51:00.395Z,2.60
2022-09-28T16:53:46.689Z,3.00
2022-09-28T16:56:14.246Z,3.90
2022-09-28T16:58:42.691Z,3.10
2022-09-28T17:01:11.441Z,3.38
2022-09-28T17:03:40.026Z,3.47
2022-09-28T17:06:07.753Z,3.38
2022-09-28T17:08:35.592Z,3.60
2022-09-28T17:11:15.941Z,3.67
2022-09-28T17:13:47.252Z,3.63
2022-09-28T17:16:22.803Z,2.97
2022-09-28T17:19:01.271Z,3.40
2022-09-28T17:21:28.861Z,3.55
2022-09-28T17:23:56.236Z,3.58
2022-09-28T17:26:30.792Z,3.30
2022-09-28T17:28:59.499Z,2.90
2022-09-28T17:31:27.051Z,2.83
2022-09-28T17:33:57.589Z,2.95
2022-09-28T17:36:26.782Z,3.40
2022-09-28T17:38:54.086Z,3.42
2022-09-28T17:41:21.647Z,3.80
2022-09-28T17:43:49.166Z,4.13
2022-09-28T17:46:22.494Z,5.50
2022-09-28T17:48:49.870Z,6.72
2022-09-28T17:51:17.176Z,3.92
2022-09-28T17:53:44.501Z,3.50
2022-09-28T17:56:12.209Z,3.10
2022-09-28T17:58:39.407Z,2.92
2022-09-28T18:01:06.837Z,3.08
2022-09-28T18:03:34.202Z,3.38
2022-09-28T18:06:04.390Z,3.22
2022-09-28T18:08:31.628Z,3.67
2022-09-28T18:10:59.176Z,4.75
2022-09-28T18:13:26.411Z,3.58
2022-09-28T18:15:54.085Z,3.50
2022-09-28T18:18:21.967Z,3.50
2022-09-28T18:20:49.593Z,3.65
2022-09-28T18:23:17.109Z,3.95
2022-09-28T18:25:44.850Z,13.00
2022-09-28T18:28:12.728Z,10.30
2022-09-28T18:30:41.358Z,4.68
2022-09-28T18:33:09.267Z,4.72
2022-09-28T18:35:36.666Z,6.40
2022-09-28T18:38:05.348Z,5.63
2022-09-28T18:40:33.399Z,6.90
2022-09-28T18:43:00.801Z,7.47
2022-09-28T18:45:28.117Z,5.93
2022-09-28T18:47:55.541Z,6.70
2022-09-28T18:52:51.145Z,4.47
2022-09-28T18:55:18.532Z,5.15
2022-09-28T18:57:47.078Z,5.28
2022-09-28T19:00:15.355Z,5.28
2022-09-28T19:02:43.096Z,6.60
2022-09-28T19:05:10.541Z,4.47
2022-09-28T19:07:37.998Z,3.55
2022-09-28T19:10:05.561Z,3.20
2022-09-28T19:12:33.363Z,3.15
2022-09-28T19:15:00.714Z,3.55
2022-09-28T19:17:28.054Z,3.70
2022-09-28T19:19:55.339Z,5.10
2022-09-28T19:22:22.901Z,3.95
2022-09-28T19:24:50.195Z,4.25
2022-09-28T19:27:17.893Z,4.25
2022-09-28T19:29:45.178Z,5.05
2022-09-28T19:32:12.767Z,4.90
2022-09-28T19:34:40.105Z,5.15
2022-09-28T19:37:07.419Z,4.75
2022-09-28T19:39:35.004Z,4.70
2022-09-28T19:42:02.344Z,5.38
2022-09-28T19:44:30.268Z,4.15
2022-09-28T19:46:57.594Z,5.47
2022-09-28T19:49:25.810Z,5.18
2022-09-28T19:55:06.680Z,4.88
2022-09-28T19:57:33.950Z,5.18
2022-09-28T20:00:03.598Z,4.72
2022-09-28T20:02:31.141Z,3.72
2022-09-28T20:04:58.661Z,4.43
2022-09-28T20:07:25.936Z,3.88
2022-09-28T20:09:53.184Z,3.60
2022-09-28T20:12:20.494Z,3.10
2022-09-28T20:14:47.808Z,2.88
2022-09-28T20:17:15.125Z,2.63
2022-09-28T20:19:42.357Z,2.60
2022-09-28T20:22:09.791Z,2.78
2022-09-28T20:24:36.985Z,3.97
2022-09-28T20:27:04.487Z,3.20
2022-09-28T20:29:33.338Z,2.88
2022-09-28T20:32:00.965Z,2.67
2022-09-28T20:34:28.533Z,2.95
2022-09-28T20:36:56.077Z,2.72
2022-09-28T20:39:23.282Z,3.72
2022-09-28T20:41:50.739Z,2.83
2022-09-28T20:44:18.099Z,2.88
2022-09-28T20:46:45.648Z,3.08
2022-09-28T20:49:12.884Z,3.10
2022-09-28T20:51:40.121Z,3.33
2022-09-28T20:54:07.414Z,2.72
2022-09-28T20:56:38.952Z,2.90
2022-09-28T20:59:10.800Z,2.92
2022-09-28T21:01:38.472Z,2.67
2022-09-28T21:04:06.418Z,3.42
2022-09-28T21:06:34.807Z,3.15
2022-09-28T21:09:02.509Z,3.40
2022-09-28T21:11:30.220Z,3.13
2022-09-28T21:14:01.851Z,3.17
2022-09-28T21:16:30.271Z,3.58
2022-09-28T21:18:57.919Z,3.33
2022-09-28T21:21:25.711Z,3.10
2022-09-28T21:23:53.824Z,3.17
2022-09-28T21:26:25.334Z,4.07
2022-09-28T21:28:53.892Z,3.85
2022-09-28T21:31:24.868Z,4.70
2022-09-28T21:33:55.594Z,3.97
2022-09-28T21:36:22.800Z,4.43
2022-09-28T21:38:50.271Z,5.00
2022-09-28T21:41:17.493Z,4.40
2022-09-28T21:43:46.324Z,3.88
2022-09-28T21:46:13.638Z,4.30
2022-09-28T21:48:41.490Z,3.95
2022-09-28T21:51:10.569Z,3.90
2022-09-28T21:53:38.458Z,3.63
2022-09-28T21:56:06.749Z,3.97
2022-09-28T21:58:34.802Z,4.43
2022-09-28T22:01:05.301Z,3.50
2022-09-28T22:03:32.990Z,3.88
2022-09-28T22:06:00.417Z,3.97
2022-09-28T22:08:27.831Z,4.10
2022-09-28T22:11:10.457Z,3.88
2022-09-28T22:13:40.716Z,3.75
2022-09-28T22:16:08.364Z,3.63
2022-09-28T22:18:35.927Z,4.18
2022-09-28T22:21:10.919Z,4.40
2022-09-28T22:23:38.800Z,4.63
2022-09-28T22:32:26.245Z,6.63
2022-09-28T22:34:53.608Z,5.75
2022-09-28T22:37:20.859Z,5.53
2022-09-28T22:39:48.772Z,5.88
2022-09-28T22:42:17.559Z,5.95
2022-09-28T22:44:44.793Z,5.95
2022-09-28T22:47:12.073Z,4.70
2022-09-28T22:49:39.280Z,4.57
2022-09-28T23:14:26.122Z,4.68
2022-09-28T23:16:56.410Z,4.43
2022-09-28T23:25:53.410Z,4.25
2022-09-28T23:28:22.423Z,3.72
2022-09-28T23:30:49.938Z,4.05
2022-09-28T23:33:17.896Z,3.70
2022-09-28T23:35:45.126Z,3.13
2022-09-28T23:38:18.423Z,3.10
2022-09-28T23:40:46.469Z,4.15
2022-09-28T23:43:14.289Z,3.15
2022-09-28T23:45:43.197Z,3.13
2022-09-28T23:48:10.602Z,3.30
2022-09-28T23:50:37.825Z,3.13
